Time;durP1;ratioP1;P1;durP2;ratioP2;P2;SDS_P1;SDS_P2;PMS_P1;PMS_P2;Temp;Humidity;BMP_temperature;BMP_pressure;BME280_temperature;BME280_humidity;BME280_pressure;Samples;Min_cycle;Max_cycle;Signal;HPM_P1;HPM_P2
2021/05/31 00:01:31;;;;;;;4.60;2.65;;;;;;;13.63;62.21;102122.44;5027570;28;20039;-75
2021/05/31 00:03:57;;;;;;;4.85;2.83;;;;;;;13.60;62.59;102127.97;5027215;28;20033;-75
2021/05/31 00:06:22;;;;;;;5.65;3.28;;;;;;;13.56;62.56;102132.63;5042040;28;20057;-75
2021/05/31 00:08:48;;;;;;;6.00;3.10;;;;;;;13.50;63.11;102117.56;5041490;28;20041;-76
2021/05/31 00:11:17;;;;;;;9.48;3.40;;;;;;;13.45;63.27;102119.78;5026773;28;20037;-76
2021/05/31 00:13:42;;;;;;;5.18;2.95;;;;;;;13.42;63.29;102120.06;5026950;28;20124;-75
2021/05/31 00:16:08;;;;;;;3.70;2.65;;;;;;;13.39;63.48;102118.56;5039769;28;20473;-75
2021/05/31 00:18:34;;;;;;;4.10;3.00;;;;;;;13.37;63.48;102119.66;5026111;28;20478;-76
2021/05/31 00:20:59;;;;;;;4.47;2.90;;;;;;;13.33;63.58;102115.69;5024240;28;20122;-75
2021/05/31 00:23:25;;;;;;;4.78;2.90;;;;;;;13.30;63.56;102121.16;5041330;28;20076;-75
2021/05/31 00:25:50;;;;;;;5.00;3.15;;;;;;;13.26;63.67;102107.63;5035616;28;20132;-76
2021/05/31 00:28:16;;;;;;;4.10;2.97;;;;;;;13.23;63.97;102110.50;5039542;28;20068;-76
2021/05/31 00:30:42;;;;;;;4.10;3.05;;;;;;;13.19;63.99;102115.16;5038041;28;20368;-76
2021/05/31 00:33:07;;;;;;;9.10;2.90;;;;;;;13.16;64.17;102112.00;5023852;28;20307;-76
2021/05/31 00:35:34;;;;;;;3.80;2.83;;;;;;;13.13;64.12;102113.13;5022967;28;20497;-76
2021/05/31 00:37:59;;;;;;;7.47;2.65;;;;;;;13.08;64.26;102110.13;5023315;28;20029;-75
2021/05/31 00:40:25;;;;;;;6.82;3.10;;;;;;;13.05;64.19;102111.22;5023031;28;20478;-76
2021/05/31 00:42:51;;;;;;;9.35;3.10;;;;;;;13.00;64.32;102108.22;5022103;28;20044;-76
2021/05/31 00:45:17;;;;;;;6.65;3.30;;;;;;;12.96;64.52;102109.47;5017420;28;20296;-76
2021/05/31 00:47:43;;;;;;;6.78;3.45;;;;;;;12.92;64.46;102104.66;5038113;28;20036;-76
2021/05/31 00:50:10;;;;;;;4.60;3.40;;;;;;;12.87;64.42;102105.09;5023723;28;20486;-76
2021/05/31 00:52:35;;;;;;;7.75;3.35;;;;;;;12.79;64.76;102105.78;5038668;28;20037;-76
2021/05/31 00:55:01;;;;;;;5.78;3.30;;;;;;;12.75;64.89;102107.03;5024441;28;20028;-76
2021/05/31 00:57:27;;;;;;;5.50;3.35;;;;;;;12.70;65.01;102111.81;5044928;28;20065;-76
2021/05/31 00:59:52;;;;;;;5.07;3.63;;;;;;;12.66;65.01;102116.47;5023237;28;20407;-76
2021/05/31 01:02:18;;;;;;;6.10;3.55;;;;;;;12.63;64.81;102108.13;5024210;28;20049;-76
2021/05/31 01:04:44;;;;;;;7.93;3.70;;;;;;;12.60;64.77;102098.81;5021734;28;20037;-76
2021/05/31 01:07:24;;;;;;;8.65;5.00;;;;;;;12.59;64.92;102109.34;5040085;28;20065;-75
2021/05/31 01:10:01;;;;;;;9.95;4.88;;;;;;;12.55;65.13;102100.19;5022454;28;20052;-76
2021/05/31 01:12:44;;;;;;;11.15;5.63;;;;;;;12.53;65.28;102099.50;5041801;28;20056;-76
2021/05/31 01:15:15;;;;;;;10.02;5.45;;;;;;;12.50;65.31;102105.78;5026086;28;20750;-76
2021/05/31 01:18:13;;;;;;;8.63;4.93;;;;;;;12.46;65.36;102099.22;5025645;28;20038;-76
2021/05/31 01:21:10;;;;;;;10.75;5.68;;;;;;;12.41;65.32;102102.25;5019346;28;20034;-76
2021/05/31 01:23:38;;;;;;;10.18;5.60;;;;;;;12.37;65.63;102106.06;5041007;28;20328;-76
2021/05/31 01:26:16;;;;;;;9.43;4.53;;;;;;;12.34;65.77;102100.28;5020305;28;20025;-76
2021/05/31 01:29:03;;;;;;;11.02;4.93;;;;;;;12.29;65.99;102102.50;5035958;28;20038;-76
2021/05/31 01:31:48;;;;;;;11.88;5.13;;;;;;;12.26;66.18;102100.97;5035067;28;20037;-76
2021/05/31 01:34:23;;;;;;;9.07;4.95;;;;;;;12.20;66.29;102099.72;5023486;28;20033;-76
2021/05/31 01:36:54;;;;;;;10.00;5.50;;;;;;;12.12;66.73;102096.19;5038006;28;20457;-76
2021/05/31 01:39:22;;;;;;;11.30;5.38;;;;;;;12.02;67.20;102102.19;5024588;28;20038;-76
2021/05/31 01:41:49;;;;;;;14.20;5.70;;;;;;;11.89;67.51;102101.56;5023911;28;20045;-76
2021/05/31 01:44:17;;;;;;;10.88;6.43;;;;;;;11.80;68.07;102097.16;5040402;28;20034;-78
2021/05/31 01:46:43;;;;;;;14.30;6.30;;;;;;;11.78;68.01;102097.28;5028375;28;20029;-76
2021/05/31 01:49:10;;;;;;;8.65;4.97;;;;;;;11.80;67.82;102099.78;5022271;28;20056;-76
2021/05/31 01:51:37;;;;;;;8.10;4.78;;;;;;;11.79;67.47;102090.31;5024200;28;20486;-75
2021/05/31 01:54:07;;;;;;;9.90;5.93;;;;;;;11.79;67.58;102093.75;5026980;28;20025;-76
2021/05/31 01:56:35;;;;;;;10.05;5.28;;;;;;;11.78;67.21;102092.09;5022560;28;20025;-76
2021/05/31 01:59:01;;;;;;;8.57;5.45;;;;;;;11.75;67.25;102087.16;5022588;28;20045;-76
2021/05/31 02:01:27;;;;;;;9.45;5.18;;;;;;;11.61;67.65;102093.56;5041979;28;20037;-76
2021/05/31 02:03:52;;;;;;;9.98;5.20;;;;;;;11.52;68.08;102088.31;5041760;28;20728;-76
2021/05/31 02:06:18;;;;;;;11.45;5.88;;;;;;;11.47;68.61;102092.13;5026443;28;20267;-76
2021/05/31 02:08:43;;;;;;;10.05;4.95;;;;;;;11.47;68.76;102088.69;5027414;28;20013;-76
2021/05/31 02:11:42;;;;;;;7.78;5.25;;;;;;;11.48;68.45;102091.16;5026591;28;20048;-76
2021/05/31 02:14:24;;;;;;;14.65;6.00;;;;;;;11.49;68.26;102087.63;5017237;28;20045;-76
2021/05/31 02:16:57;;;;;;;10.15;5.50;;;;;;;11.48;68.07;102087.75;5040038;28;20075;-76
2021/05/31 02:19:23;;;;;;;;;;;;;;;11.48;68.12;102082.56;5027331;28;20033;-76
2021/05/31 02:21:51;;;;;;;8.18;5.45;;;;;;;11.44;67.93;102082.00;5026124;28;20401;-76
2021/05/31 02:24:18;;;;;;;11.88;5.32;;;;;;;11.42;68.24;102088.28;5023843;28;20033;-76
2021/05/31 02:26:45;;;;;;;9.85;5.40;;;;;;;11.38;68.69;102079.94;5041299;28;20363;-78
2021/05/31 02:29:11;;;;;;;11.40;5.97;;;;;;;11.35;68.69;102077.59;5041764;28;20163;-77
2021/05/31 02:31:38;;;;;;;8.48;5.53;;;;;;;11.33;68.75;102079.50;5043475;28;20037;-76
2021/05/31 02:34:03;;;;;;;11.57;6.40;;;;;;;11.30;68.91;102074.53;5026234;28;20033;-76
2021/05/31 02:36:29;;;;;;;12.00;6.13;;;;;;;11.29;68.52;102084.13;5027273;28;20110;-76
2021/05/31 02:38:54;;;;;;;13.52;5.15;;;;;;;11.26;68.47;102084.41;5025776;28;20040;-76
2021/05/31 02:41:20;;;;;;;10.15;5.70;;;;;;;11.24;68.73;102088.88;5023040;28;20038;-76
2021/05/31 02:43:45;;;;;;;14.35;6.55;;;;;;;11.22;68.60;102084.75;5042526;28;20319;-76
2021/05/31 02:46:10;;;;;;;9.18;6.10;;;;;;;11.20;68.93;102089.25;5026677;28;20479;-76
2021/05/31 02:48:36;;;;;;;10.20;5.97;;;;;;;11.15;68.85;102094.00;5041950;28;20044;-76
2021/05/31 02:51:02;;;;;;;11.85;6.18;;;;;;;11.09;69.37;102088.41;5027016;28;20044;-76
2021/05/31 02:53:29;;;;;;;10.45;5.68;;;;;;;11.06;69.43;102088.66;5029342;28;20038;-76
2021/05/31 02:55:55;;;;;;;9.35;5.90;;;;;;;11.04;69.32;102087.13;5026104;28;20029;-76
2021/05/31 02:58:20;;;;;;;13.32;7.07;;;;;;;11.01;69.38;102088.19;5040407;28;20422;-77
2021/05/31 03:00:45;;;;;;;11.82;5.80;;;;;;;10.92;69.92;102086.38;5026071;28;20084;-76
2021/05/31 03:03:11;;;;;;;9.82;5.65;;;;;;;10.88;69.76;102092.75;5042208;28;20098;-76
2021/05/31 03:05:37;;;;;;;11.50;5.70;;;;;;;10.83;70.15;102087.13;5038998;28;20022;-76
2021/05/31 03:08:03;;;;;;;9.68;5.85;;;;;;;10.80;69.94;102096.00;5040834;28;20065;-76
2021/05/31 03:10:29;;;;;;;12.45;5.57;;;;;;;10.77;70.07;102091.03;5024285;28;20033;-76
2021/05/31 03:12:58;;;;;;;9.68;5.43;;;;;;;10.71;70.00;102094.16;5025716;28;20516;-76
2021/05/31 03:15:23;;;;;;;9.98;5.45;;;;;;;10.67;70.08;102090.16;5025644;28;20037;-76
2021/05/31 03:17:50;;;;;;;9.07;5.50;;;;;;;10.64;70.32;102099.03;5039993;28;20037;-76
2021/05/31 03:20:18;;;;;;;11.05;5.72;;;;;;;10.61;70.32;102091.47;5024141;28;20033;-76
2021/05/31 03:22:44;;;;;;;8.63;5.40;;;;;;;10.56;70.48;102093.63;5040891;28;20033;-75
2021/05/31 03:25:11;;;;;;;13.18;5.78;;;;;;;10.50;70.65;102097.53;5024150;28;20047;-77
2021/05/31 03:27:37;;;;;;;6.88;5.20;;;;;;;10.45;70.75;102098.84;5020315;28;20157;-75
2021/05/31 03:30:08;;;;;;;9.48;5.65;;;;;;;10.43;71.01;102093.78;5043848;28;20790;-76
2021/05/31 03:32:34;;;;;;;9.45;5.35;;;;;;;10.41;70.88;102103.44;5041458;28;20542;-76
2021/05/31 03:35:01;;;;;;;9.30;5.35;;;;;;;10.36;71.03;102104.75;5044470;28;20022;-77
2021/05/31 03:37:26;;;;;;;8.63;5.97;;;;;;;10.33;71.14;102108.44;5040742;28;20034;-78
2021/05/31 03:39:51;;;;;;;14.82;6.00;;;;;;;10.30;71.51;102104.34;5036140;28;20425;-78
2021/05/31 03:42:17;;;;;;;7.20;5.38;;;;;;;10.30;71.34;102106.06;5028378;28;20079;-78
2021/05/31 03:44:42;;;;;;;8.10;5.55;;;;;;;10.32;71.36;102107.63;5045124;28;20056;-78
2021/05/31 03:47:09;;;;;;;9.40;5.95;;;;;;;10.33;71.57;102104.06;5045146;28;20048;-78
2021/05/31 03:49:35;;;;;;;9.15;5.78;;;;;;;10.34;71.55;102099.72;5023772;28;20033;-77
2021/05/31 03:52:00;;;;;;;12.00;6.15;;;;;;;10.34;71.77;102112.69;5023545;28;20037;-77
2021/05/31 03:54:26;;;;;;;10.95;6.35;;;;;;;10.33;72.12;102106.66;5035675;28;20064;-77
2021/05/31 03:56:51;;;;;;;8.38;5.72;;;;;;;10.35;71.91;102105.72;5028254;28;20132;-77
2021/05/31 03:59:18;;;;;;;11.25;5.80;;;;;;;10.34;72.27;102107.50;5042758;28;20037;-77
2021/05/31 04:01:45;;;;;;;15.23;6.50;;;;;;;10.33;72.32;102111.03;5023094;28;20037;-77
2021/05/31 04:04:11;;;;;;;10.65;6.68;;;;;;;10.33;72.35;102100.66;5026511;28;20037;-77
2021/05/31 04:11:59;;;;;;;12.40;6.68;;;;;;;10.32;72.49;102099.84;5040895;28;20037;-78
2021/05/31 04:14:25;;;;;;;12.02;6.10;;;;;;;10.31;72.61;102103.38;5044004;28;20029;-77
2021/05/31 04:16:53;;;;;;;10.85;6.53;;;;;;;10.31;72.56;102097.38;5026296;28;20501;-77
2021/05/31 04:19:21;;;;;;;9.82;6.10;;;;;;;10.32;72.59;102099.84;5026131;28;20064;-77
2021/05/31 04:21:49;;;;;;;11.13;6.35;;;;;;;10.35;72.62;102103.13;5040704;28;20144;-77
2021/05/31 04:24:15;;;;;;;14.05;7.07;;;;;;;10.37;72.76;102102.06;5026506;28;20124;-77
2021/05/31 04:26:41;;;;;;;13.07;7.28;;;;;;;10.40;72.69;102094.03;5025647;28;20029;-77
2021/05/31 04:29:09;;;;;;;15.85;7.93;;;;;;;10.41;72.90;102097.44;5025283;28;20627;-77
2021/05/31 04:31:36;;;;;;;13.77;7.70;;;;;;;10.43;72.76;102095.56;5040027;28;20061;-77
2021/05/31 04:34:03;;;;;;;13.75;7.88;;;;;;;10.46;72.97;102098.72;5022758;28;20029;-77
2021/05/31 04:36:29;;;;;;;14.95;7.50;;;;;;;10.48;72.86;102101.19;5040048;28;20426;-77
2021/05/31 04:38:54;;;;;;;17.52;7.78;;;;;;;10.50;73.21;102100.13;5025903;28;20029;-77
2021/05/31 04:41:20;;;;;;;14.43;8.73;;;;;;;10.56;72.87;102096.22;5042057;28;20029;-77
2021/05/31 04:43:45;;;;;;;11.45;7.40;;;;;;;10.59;73.28;102098.56;5042307;28;20033;-77
2021/05/31 04:46:11;;;;;;;15.73;7.95;;;;;;;10.63;73.26;102089.59;5022844;28;20040;-77
2021/05/31 04:48:36;;;;;;;12.82;8.10;;;;;;;10.69;73.11;102091.66;5025616;28;20025;-77
2021/05/31 04:51:02;;;;;;;13.88;7.72;;;;;;;10.76;73.34;102094.59;5026060;28;20438;-77
2021/05/31 04:53:32;;;;;;;14.82;8.00;;;;;;;10.83;73.36;102095.75;5046463;28;20117;-77
2021/05/31 04:55:59;;;;;;;19.77;7.70;;;;;;;10.90;73.11;102094.28;5025372;28;20056;-77
2021/05/31 04:58:25;;;;;;;14.10;8.63;;;;;;;11.01;73.16;102097.75;5026365;28;20036;-77
2021/05/31 05:00:51;;;;;;;13.40;7.32;;;;;;;11.10;73.34;102095.22;5022232;28;20022;-77
2021/05/31 05:03:19;;;;;;;11.95;7.50;;;;;;;11.21;73.05;102094.34;5025394;28;20146;-77
2021/05/31 05:05:47;;;;;;;17.55;7.20;;;;;;;11.34;72.77;102094.13;5032350;28;20082;-76
2021/05/31 05:08:13;;;;;;;13.13;8.02;;;;;;;11.46;72.71;102090.47;5041539;28;20033;-77
2021/05/31 05:10:38;;;;;;;13.85;8.35;;;;;;;11.61;72.55;102095.34;5038713;28;20037;-77
2021/05/31 05:13:04;;;;;;;15.18;8.13;;;;;;;11.74;72.27;102090.72;5024790;28;20022;-77
2021/05/31 05:15:30;;;;;;;13.02;7.57;;;;;;;11.91;72.16;102098.88;5026478;28;20522;-77
2021/05/31 05:17:56;;;;;;;11.05;7.30;;;;;;;12.10;71.80;102095.50;5024008;28;20307;-76
2021/05/31 05:20:24;;;;;;;11.13;7.25;;;;;;;12.27;71.29;102098.25;5024968;28;20037;-76
2021/05/31 05:22:51;;;;;;;13.10;6.38;;;;;;;12.47;70.75;102100.88;5031943;28;20037;-76
2021/05/31 05:25:17;;;;;;;12.27;6.78;;;;;;;12.67;70.23;102096.47;5024635;28;20033;-76
2021/05/31 05:27:44;;;;;;;10.35;7.03;;;;;;;12.89;69.78;102092.75;5025785;28;20025;-76
2021/05/31 05:30:12;;;;;;;11.93;7.43;;;;;;;13.14;68.97;102088.72;5034973;28;20497;-77
2021/05/31 05:32:37;;;;;;;22.15;9.05;;;;;;;13.42;67.69;102086.19;5021578;28;20171;-76
2021/05/31 05:35:14;;;;;;;12.93;7.97;;;;;;;13.63;67.13;102089.38;5028378;28;20098;-77
2021/05/31 05:37:52;;;;;;;12.63;7.40;;;;;;;13.92;66.50;102082.34;5040330;28;20545;-77
2021/05/31 05:40:50;;;;;;;16.95;9.55;;;;;;;14.14;65.65;102084.53;5027039;28;20033;-77
2021/05/31 05:43:22;;;;;;;13.52;7.90;;;;;;;14.43;64.40;102090.50;5029843;28;20053;-77
2021/05/31 05:48:13;;;;;;;20.42;7.80;;;;;;;15.13;62.44;102083.56;5042685;28;20025;-76
2021/05/31 05:50:39;;;;;;;16.90;8.13;;;;;;;15.48;61.48;102081.78;5042470;28;20084;-77
2021/05/31 05:53:04;;;;;;;17.95;8.85;;;;;;;15.76;60.09;102086.78;5026667;28;20500;-77
2021/05/31 05:55:30;;;;;;;15.80;6.72;;;;;;;16.11;59.94;102082.31;5041076;28;20033;-77
2021/05/31 05:57:55;;;;;;;9.07;6.32;;;;;;;16.52;59.05;102079.72;5025552;28;20121;-77
2021/05/31 06:00:24;;;;;;;12.20;7.20;;;;;;;16.86;58.78;102078.72;5042603;28;20440;-77
2021/05/31 06:02:50;;;;;;;16.77;7.97;;;;;;;17.09;55.19;102078.84;5026100;28;20044;-77
2021/05/31 06:05:16;;;;;;;14.77;7.78;;;;;;;17.20;55.14;102077.66;5041657;28;20075;-77
2021/05/31 06:07:42;;;;;;;15.77;9.27;;;;;;;17.23;54.11;102080.72;5041389;28;20025;-77
2021/05/31 06:10:08;;;;;;;18.45;7.43;;;;;;;17.45;54.53;102078.38;5027967;28;20064;-77
2021/05/31 06:12:34;;;;;;;16.52;7.25;;;;;;;17.77;54.74;102074.78;5040652;28;20022;-77
2021/05/31 06:15:00;;;;;;;16.38;7.75;;;;;;;18.12;53.02;102072.63;5025333;28;20030;-77
2021/05/31 06:17:25;;;;;;;16.50;8.55;;;;;;;18.35;51.65;102080.47;5041860;28;20034;-77
2021/05/31 06:19:51;;;;;;;16.98;8.35;;;;;;;18.37;52.05;102075.88;5027562;28;20087;-77
2021/05/31 06:22:17;;;;;;;17.80;7.78;;;;;;;18.66;51.48;102079.56;5048001;28;20116;-78
2021/05/31 06:24:43;;;;;;;11.63;7.40;;;;;;;19.01;50.97;102074.66;5021056;28;20153;-78
2021/05/31 06:27:09;;;;;;;12.45;7.47;;;;;;;19.35;50.97;102073.28;5024952;28;20037;-77
2021/05/31 06:29:35;;;;;;;13.73;7.72;;;;;;;19.41;50.37;102070.72;5024168;28;20045;-77
2021/05/31 06:32:00;;;;;;;16.58;8.00;;;;;;;19.55;50.66;102069.06;5039366;28;20041;-77
2021/05/31 06:34:26;;;;;;;16.42;7.35;;;;;;;19.80;49.08;102071.38;5026723;28;20037;-77
2021/05/31 06:36:55;;;;;;;12.35;7.35;;;;;;;20.08;46.72;102060.94;5043420;28;20125;-77
2021/05/31 06:39:21;;;;;;;15.15;8.02;;;;;;;20.11;46.92;102059.72;5026590;28;20091;-78
2021/05/31 06:41:47;;;;;;;16.30;7.93;;;;;;;20.35;46.34;102058.53;5045128;28;20031;-77
2021/05/31 06:44:12;;;;;;;11.43;7.20;;;;;;;20.49;45.55;102060.25;5028245;28;20077;-77
2021/05/31 06:46:38;;;;;;;13.32;7.88;;;;;;;20.68;45.42;102060.59;5044468;28;20026;-77
2021/05/31 06:49:04;;;;;;;15.63;7.30;;;;;;;20.79;45.06;102060.91;5028309;28;20545;-78
2021/05/31 06:51:29;;;;;;;15.45;7.95;;;;;;;20.94;44.57;102058.13;5028179;28;20541;-77
2021/05/31 06:53:54;;;;;;;15.60;7.18;;;;;;;21.21;43.92;102050.38;5044317;28;20033;-77
2021/05/31 06:56:23;;;;;;;16.08;8.05;;;;;;;21.41;43.71;102053.06;5041482;28;20509;-77
2021/05/31 06:58:49;;;;;;;16.65;7.88;;;;;;;21.70;43.61;102045.84;5028212;28;20461;-77
2021/05/31 07:01:14;;;;;;;11.73;6.50;;;;;;;21.96;42.62;102035.38;5031582;28;20363;-78
2021/05/31 07:03:39;;;;;;;13.52;6.97;;;;;;;22.30;41.03;102041.50;5026009;28;20028;-77
2021/05/31 07:06:05;;;;;;;9.55;6.07;;;;;;;22.17;40.91;102042.28;5028593;28;20044;-78
2021/05/31 07:08:31;;;;;;;10.63;6.28;;;;;;;22.46;40.25;102032.31;5044128;28;20055;-78
2021/05/31 07:10:59;;;;;;;16.90;6.82;;;;;;;22.48;39.85;102032.13;5025858;28;20030;-77
2021/05/31 07:13:26;;;;;;;13.60;6.32;;;;;;;22.52;39.98;102034.13;5027771;28;20029;-78
2021/05/31 07:15:52;;;;;;;10.30;4.82;;;;;;;23.02;38.61;102030.13;5044083;28;20087;-78
2021/05/31 07:18:19;;;;;;;9.15;5.15;;;;;;;23.35;37.23;102027.38;5042266;28;20037;-77
2021/05/31 07:20:48;;;;;;;9.75;5.88;;;;;;;23.24;37.74;102030.69;5028139;28;20073;-77
2021/05/31 07:23:13;;;;;;;10.85;5.97;;;;;;;23.43;38.05;102027.16;5023396;28;20032;-79
2021/05/31 07:25:39;;;;;;;16.85;6.90;;;;;;;23.27;38.58;102031.09;5027414;28;20033;-78
2021/05/31 07:28:05;;;;;;;9.60;5.55;;;;;;;23.22;37.04;102027.44;5027439;28;20022;-78
2021/05/31 07:30:31;;;;;;;9.98;5.90;;;;;;;23.48;36.65;102024.66;5022935;28;20280;-78
2021/05/31 07:32:57;;;;;;;16.30;7.03;;;;;;;23.71;36.27;102024.13;5041351;28;20513;-78
2021/05/31 07:35:22;;;;;;;12.30;5.57;;;;;;;23.92;37.66;102026.63;5021942;28;20030;-78
2021/05/31 07:37:47;;;;;;;13.27;5.97;;;;;;;24.10;37.81;102024.06;5025692;28;20533;-76
2021/05/31 07:40:15;;;;;;;15.45;7.40;;;;;;;24.27;35.99;102024.31;5026449;28;20037;-76
2021/05/31 07:42:41;;;;;;;16.95;6.35;;;;;;;24.36;35.96;102016.91;5041159;28;20033;-76
2021/05/31 07:45:08;;;;;;;13.00;6.13;;;;;;;24.36;36.21;102023.00;5024409;28;20120;-76
2021/05/31 07:47:34;;;;;;;15.07;5.80;;;;;;;24.73;37.40;102012.44;5040574;28;20056;-76
2021/05/31 07:49:59;;;;;;;14.75;6.40;;;;;;;24.99;34.82;102018.47;5026310;28;20076;-76
2021/05/31 07:52:26;;;;;;;11.70;6.07;;;;;;;24.84;35.01;102016.19;5024702;28;20033;-76
2021/05/31 07:54:52;;;;;;;12.00;5.47;;;;;;;25.13;36.20;102017.28;5027485;28;20052;-76
2021/05/31 07:57:19;;;;;;;12.40;5.13;;;;;;;25.14;35.81;102012.78;5010360;28;20452;-76
2021/05/31 07:59:47;;;;;;;15.10;5.93;;;;;;;25.24;34.09;102018.38;5022612;28;20274;-77
2021/05/31 08:02:14;;;;;;;10.98;4.88;;;;;;;25.03;34.70;102015.16;5027904;28;20037;-76
2021/05/31 08:04:39;;;;;;;10.65;5.65;;;;;;;25.12;34.69;102020.16;5038670;28;20450;-77
2021/05/31 08:07:05;;;;;;;10.23;4.72;;;;;;;25.28;32.57;102011.59;5040396;28;20136;-76
2021/05/31 08:09:30;;;;;;;17.15;5.20;;;;;;;25.51;33.50;102010.06;5036316;28;20075;-76
2021/05/31 08:11:56;;;;;;;11.55;4.90;;;;;;;25.62;33.12;102019.91;5037441;28;20048;-76
2021/05/31 08:14:23;;;;;;;10.65;4.90;;;;;;;25.72;33.52;102012.19;5015370;28;20128;-76
2021/05/31 08:16:49;;;;;;;13.15;5.18;;;;;;;25.77;32.75;102016.81;5033397;28;20076;-76
2021/05/31 08:19:15;;;;;;;7.68;4.63;;;;;;;25.82;32.14;102008.94;5024873;28;20112;-76
2021/05/31 08:21:42;;;;;;;11.60;5.65;;;;;;;25.80;32.78;102011.03;5037217;28;20055;-76
2021/05/31 08:24:08;;;;;;;14.85;5.18;;;;;;;26.16;33.44;102004.75;5035174;28;20369;-76
2021/05/31 08:26:37;;;;;;;10.65;4.45;;;;;;;26.13;32.33;101999.09;5036073;28;20127;-76
2021/05/31 08:29:03;;;;;;;13.50;5.25;;;;;;;26.02;32.33;102003.34;5025497;28;20041;-76
2021/05/31 08:31:29;;;;;;;10.88;5.38;;;;;;;26.29;31.17;102000.22;5023137;28;20044;-76
2021/05/31 08:33:54;;;;;;;9.02;5.00;;;;;;;26.28;32.26;102009.25;5035895;28;20259;-77
2021/05/31 08:36:21;;;;;;;10.07;4.57;;;;;;;26.51;31.94;101997.78;5019165;28;20029;-77
2021/05/31 08:38:47;;;;;;;10.95;5.28;;;;;;;26.09;32.23;101990.78;5033910;28;21352;-77
2021/05/31 08:41:13;;;;;;;9.90;4.63;;;;;;;26.23;32.72;101993.97;5014430;28;20033;-77
2021/05/31 08:43:39;;;;;;;13.52;5.57;;;;;;;26.10;32.63;101992.38;5015974;28;20106;-76
2021/05/31 08:46:05;;;;;;;10.63;4.95;;;;;;;26.71;32.31;101989.41;5019149;28;20072;-76
2021/05/31 08:48:31;;;;;;;8.52;4.40;;;;;;;26.52;31.13;101992.22;5020827;28;20036;-76
2021/05/31 08:50:56;;;;;;;7.57;4.28;;;;;;;26.52;31.24;101984.25;5025462;28;20825;-76
2021/05/31 08:53:22;;;;;;;7.60;4.13;;;;;;;26.57;31.62;101983.53;5026186;28;20069;-76
2021/05/31 08:55:47;;;;;;;14.70;4.38;;;;;;;26.55;30.06;101981.09;5022955;28;20120;-76
2021/05/31 08:58:13;;;;;;;7.32;3.90;;;;;;;26.43;30.80;101985.66;5025559;28;20478;-76
2021/05/31 09:00:39;;;;;;;6.55;3.88;;;;;;;26.51;30.79;101973.84;5026661;28;20053;-76
2021/05/31 09:03:11;;;;;;;9.20;3.88;;;;;;;26.57;31.76;101975.56;5041628;28;20037;-76
2021/05/31 09:05:39;;;;;;;10.25;3.90;;;;;;;26.63;31.37;101971.19;5024608;28;20136;-76
2021/05/31 09:08:15;;;;;;;9.32;4.78;;;;;;;26.16;31.20;101974.69;5035895;28;20094;-76
2021/05/31 09:10:47;;;;;;;11.27;4.57;;;;;;;25.68;32.02;101971.19;5026520;28;20025;-75
2021/05/31 09:13:39;;;;;;;8.43;4.53;;;;;;;26.00;33.01;101968.25;5041903;28;20037;-76
2021/05/31 09:16:09;;;;;;;8.63;4.37;;;;;;;26.30;30.65;101967.28;5026366;28;20043;-76
2021/05/31 09:18:37;;;;;;;7.70;4.57;;;;;;;26.21;31.89;101978.25;5016344;28;20420;-76
2021/05/31 09:21:32;;;;;;;9.70;4.65;;;;;;;26.20;31.60;101975.84;5042217;28;20025;-76
2021/05/31 09:24:03;;;;;;;13.45;4.95;;;;;;;26.25;32.34;101970.63;5022795;28;20037;-76
2021/05/31 09:26:30;;;;;;;6.43;3.90;;;;;;;26.27;32.51;101973.88;5035153;28;20041;-77
2021/05/31 09:29:00;;;;;;;8.10;4.25;;;;;;;25.67;32.72;101976.72;5035474;28;20026;-76
2021/05/31 09:31:27;;;;;;;6.30;3.35;;;;;;;26.05;32.68;101964.88;5022251;28;20139;-76
2021/05/31 09:34:05;;;;;;;8.40;4.28;;;;;;;26.28;30.88;101964.06;5022097;28;20056;-76
2021/05/31 09:36:33;;;;;;;8.25;3.95;;;;;;;26.20;30.20;101960.72;5033615;28;20060;-76
2021/05/31 09:38:59;;;;;;;7.90;3.50;;;;;;;26.25;31.52;101965.31;5024693;28;20029;-77
2021/05/31 09:41:30;;;;;;;7.40;3.00;;;;;;;26.44;31.32;101952.69;5026433;28;20037;-76
2021/05/31 09:44:01;;;;;;;6.28;3.13;;;;;;;26.44;29.39;101955.34;5037752;28;20505;-75
2021/05/31 09:46:45;;;;;;;5.93;3.10;;;;;;;26.49;30.28;101947.50;4999865;28;20026;-76
2021/05/31 09:49:16;;;;;;;5.47;3.00;;;;;;;26.50;31.21;101946.44;5040165;28;20030;-76
2021/05/31 09:52:06;;;;;;;6.88;3.42;;;;;;;26.59;30.64;101947.69;5025900;28;20112;-76
2021/05/31 09:54:43;;;;;;;5.43;3.35;;;;;;;26.99;29.17;101948.72;5035698;28;20547;-76
2021/05/31 09:57:21;;;;;;;10.07;3.35;;;;;;;27.18;28.16;101942.16;5038321;28;20037;-76
2021/05/31 10:00:19;;;;;;;9.90;3.63;;;;;;;26.50;29.61;101940.31;5025982;28;20030;-76
2021/05/31 10:10:29;;;;;;;7.63;3.42;;;;;;;26.28;30.24;101943.59;5037088;28;20021;-76
2021/05/31 10:12:55;;;;;;;6.60;3.30;;;;;;;26.48;29.34;101931.75;5020983;28;20112;-76
2021/05/31 10:15:24;;;;;;;9.80;3.95;;;;;;;26.61;28.94;101924.34;5043224;28;20113;-76
2021/05/31 10:17:53;;;;;;;10.07;3.08;;;;;;;26.62;29.26;101919.84;5025625;28;20127;-76
2021/05/31 10:20:19;;;;;;;4.40;3.03;;;;;;;26.69;29.96;101920.53;5041142;28;20036;-76
2021/05/31 10:22:45;;;;;;;7.22;3.47;;;;;;;26.21;30.85;101919.00;5029317;28;20029;-75
2021/05/31 10:25:11;;;;;;;9.85;3.55;;;;;;;25.88;30.26;101919.56;5026877;28;20021;-75
2021/05/31 10:27:38;;;;;;;6.00;3.65;;;;;;;25.64;29.37;101924.88;5044917;28;20501;-75
2021/05/31 10:30:07;;;;;;;5.18;3.70;;;;;;;25.12;31.31;101916.69;5041975;28;20026;-75
2021/05/31 10:32:32;;;;;;;7.95;3.42;;;;;;;25.87;31.42;101910.00;5027945;28;20068;-75
2021/05/31 10:34:57;;;;;;;13.25;4.82;;;;;;;26.17;30.57;101899.25;5042757;28;20103;-75
2021/05/31 10:37:25;;;;;;;6.43;3.97;;;;;;;26.70;29.02;101898.19;5024772;28;20124;-75
2021/05/31 10:39:58;;;;;;;7.20;4.10;;;;;;;26.69;30.41;101903.75;5028411;28;20035;-75
2021/05/31 10:42:25;;;;;;;8.70;4.70;;;;;;;26.57;30.30;101904.56;5041562;28;20038;-76
2021/05/31 10:44:50;;;;;;;13.43;4.35;;;;;;;26.58;31.27;101895.56;5026391;28;20037;-76
2021/05/31 10:47:25;;;;;;;9.63;4.22;;;;;;;26.69;31.16;101891.25;5026717;28;20056;-76
2021/05/31 10:49:57;;;;;;;6.97;4.30;;;;;;;26.58;30.83;101900.88;5029248;28;20033;-75
2021/05/31 10:52:23;;;;;;;11.93;5.93;;;;;;;26.59;31.56;101901.66;5025988;28;20041;-75
2021/05/31 10:54:48;;;;;;;11.32;4.35;;;;;;;26.78;31.60;101908.44;5027266;28;20034;-75
2021/05/31 10:57:14;;;;;;;11.40;5.90;;;;;;;26.43;30.03;101897.91;5041977;28;20670;-76
2021/05/31 10:59:49;;;;;;;8.52;5.20;;;;;;;26.42;30.07;101891.78;5027937;28;20037;-75
2021/05/31 11:02:23;;;;;;;12.02;5.18;;;;;;;26.03;30.77;101890.69;5047767;28;20033;-76
2021/05/31 11:04:49;;;;;;;14.27;4.82;;;;;;;26.42;30.79;101883.00;5040185;28;20048;-76
2021/05/31 11:07:25;;;;;;;8.93;4.95;;;;;;;26.53;30.33;101889.31;5042589;28;20017;-76
2021/05/31 11:09:51;;;;;;;13.65;4.70;;;;;;;26.33;31.12;101877.22;5028614;28;20552;-76
2021/05/31 11:12:27;;;;;;;12.43;6.20;;;;;;;26.49;30.98;101875.69;5028122;28;20029;-76
2021/05/31 11:14:53;;;;;;;14.13;5.47;;;;;;;26.64;31.78;101877.06;5028648;28;20029;-76
2021/05/31 11:17:19;;;;;;;13.70;5.43;;;;;;;26.36;32.05;101873.31;5042819;28;20028;-76
2021/05/31 11:19:50;;;;;;;14.20;6.57;;;;;;;25.93;31.85;101874.56;5025807;28;20030;-76
2021/05/31 11:22:27;;;;;;;11.60;6.53;;;;;;;25.40;31.56;101871.75;5024002;28;20121;-76
2021/05/31 11:24:58;;;;;;;10.18;5.43;;;;;;;25.18;33.74;101881.25;5041484;28;20025;-76
2021/05/31 11:27:25;;;;;;;14.05;5.50;;;;;;;25.10;33.98;101878.94;5042659;28;20044;-76
2021/05/31 11:29:51;;;;;;;9.65;5.22;;;;;;;25.28;33.57;101868.28;5042649;28;20044;-76
2021/05/31 11:32:18;;;;;;;7.97;4.57;;;;;;;25.61;32.65;101870.38;5023940;28;20051;-77
2021/05/31 11:34:57;;;;;;;10.38;4.10;;;;;;;25.83;32.83;101875.13;5024241;28;20635;-76
2021/05/31 11:37:25;;;;;;;15.68;6.22;;;;;;;25.37;32.43;101874.06;5022778;28;20118;-76
2021/05/31 11:39:51;;;;;;;9.93;5.20;;;;;;;24.80;34.50;101871.81;5026351;28;20091;-76
2021/05/31 11:42:17;;;;;;;10.82;4.07;;;;;;;24.84;31.68;101867.69;5025379;28;20052;-77